sensor_id;sensor_type;location;lat;lon;timestamp;P1;durP1;ratioP1;P2;durP2;ratioP2
7545;SDS011;3814;51.454;12.616;2022-07-15T00:01:59;2.63;;;0.73;;
7545;SDS011;3814;51.454;12.616;2022-07-15T00:04:24;1.27;;;0.60;;
7545;SDS011;3814;51.454;12.616;2022-07-15T00:06:50;3.25;;;0.70;;
7545;SDS011;3814;51.454;12.616;2022-07-15T00:09:15;1.25;;;0.80;;
7545;SDS011;3814;51.454;12.616;2022-07-15T00:11:40;2.50;;;0.85;;
7545;SDS011;3814;51.454;12.616;2022-07-15T00:14:06;2.00;;;0.70;;
7545;SDS011;3814;51.454;12.616;2022-07-15T00:16:31;2.58;;;0.82;;
7545;SDS011;3814;51.454;12.616;2022-07-15T00:18:56;1.33;;;0.80;;
7545;SDS011;3814;51.454;12.616;2022-07-15T00:21:22;2.30;;;0.77;;
7545;SDS011;3814;51.454;12.616;2022-07-15T00:23:47;1.02;;;0.70;;
7545;SDS011;3814;51.454;12.616;2022-07-15T00:26:12;1.27;;;0.70;;
7545;SDS011;3814;51.454;12.616;2022-07-15T00:28:38;2.13;;;0.90;;
7545;SDS011;3814;51.454;12.616;2022-07-15T00:31:03;0.95;;;0.70;;
7545;SDS011;3814;51.454;12.616;2022-07-15T00:33:28;2.60;;;0.90;;
7545;SDS011;3814;51.454;12.616;2022-07-15T00:35:54;1.20;;;0.70;;
7545;SDS011;3814;51.454;12.616;2022-07-15T00:38:19;2.35;;;0.80;;
7545;SDS011;3814;51.454;12.616;2022-07-15T00:40:45;1.08;;;0.70;;
7545;SDS011;3814;51.454;12.616;2022-07-15T00:43:12;1.73;;;0.80;;
7545;SDS011;3814;51.454;12.616;2022-07-15T00:45:41;1.90;;;0.70;;
7545;SDS011;3814;51.454;12.616;2022-07-15T00:48:06;2.45;;;0.90;;
7545;SDS011;3814;51.454;12.616;2022-07-15T00:50:32;1.00;;;0.70;;
7545;SDS011;3814;51.454;12.616;2022-07-15T00:55:29;1.52;;;0.90;;
7545;SDS011;3814;51.454;12.616;2022-07-15T00:57:57;2.05;;;0.80;;
7545;SDS011;3814;51.454;12.616;2022-07-15T01:00:25;4.07;;;1.30;;
7545;SDS011;3814;51.454;12.616;2022-07-15T01:02:51;1.25;;;0.80;;
7545;SDS011;3814;51.454;12.616;2022-07-15T01:05:18;3.85;;;1.00;;
7545;SDS011;3814;51.454;12.616;2022-07-15T01:07:44;1.77;;;1.00;;
7545;SDS011;3814;51.454;12.616;2022-07-15T01:10:10;1.38;;;0.82;;
7545;SDS011;3814;51.454;12.616;2022-07-15T01:12:36;1.65;;;1.00;;
7545;SDS011;3814;51.454;12.616;2022-07-15T01:15:06;1.63;;;0.93;;
7545;SDS011;3814;51.454;12.616;2022-07-15T01:17:32;2.47;;;0.95;;
7545;SDS011;3814;51.454;12.616;2022-07-15T01:19:58;2.35;;;0.90;;
7545;SDS011;3814;51.454;12.616;2022-07-15T01:22:23;2.67;;;1.00;;
7545;SDS011;3814;51.454;12.616;2022-07-15T01:24:49;2.40;;;1.25;;
7545;SDS011;3814;51.454;12.616;2022-07-15T01:27:14;3.25;;;1.00;;
7545;SDS011;3814;51.454;12.616;2022-07-15T01:29:40;5.57;;;0.98;;
7545;SDS011;3814;51.454;12.616;2022-07-15T01:32:05;1.95;;;1.00;;
7545;SDS011;3814;51.454;12.616;2022-07-15T01:34:30;4.57;;;1.20;;
7545;SDS011;3814;51.454;12.616;2022-07-15T01:36:56;1.90;;;0.98;;
7545;SDS011;3814;51.454;12.616;2022-07-15T01:39:21;4.32;;;1.00;;
7545;SDS011;3814;51.454;12.616;2022-07-15T01:41:46;1.52;;;0.93;;
7545;SDS011;3814;51.454;12.616;2022-07-15T01:44:12;1.77;;;1.00;;
7545;SDS011;3814;51.454;12.616;2022-07-15T01:46:39;3.28;;;1.13;;
7545;SDS011;3814;51.454;12.616;2022-07-15T01:49:04;1.83;;;1.00;;
7545;SDS011;3814;51.454;12.616;2022-07-15T01:51:50;3.38;;;1.00;;
7545;SDS011;3814;51.454;12.616;2022-07-15T01:54:15;1.98;;;1.10;;
7545;SDS011;3814;51.454;12.616;2022-07-15T01:56:41;2.67;;;1.20;;
7545;SDS011;3814;51.454;12.616;2022-07-15T01:59:06;3.90;;;1.10;;
7545;SDS011;3814;51.454;12.616;2022-07-15T02:01:32;2.78;;;1.00;;
7545;SDS011;3814;51.454;12.616;2022-07-15T02:03:57;1.73;;;1.10;;
7545;SDS011;3814;51.454;12.616;2022-07-15T02:06:22;2.63;;;1.10;;
7545;SDS011;3814;51.454;12.616;2022-07-15T02:08:48;2.25;;;1.10;;
7545;SDS011;3814;51.454;12.616;2022-07-15T02:11:13;4.32;;;1.17;;
7545;SDS011;3814;51.454;12.616;2022-07-15T02:13:38;2.15;;;1.10;;
7545;SDS011;3814;51.454;12.616;2022-07-15T02:16:04;1.98;;;1.10;;
7545;SDS011;3814;51.454;12.616;2022-07-15T02:18:29;1.92;;;1.20;;
7545;SDS011;3814;51.454;12.616;2022-07-15T02:20:55;2.50;;;1.40;;
7545;SDS011;3814;51.454;12.616;2022-07-15T02:23:20;2.47;;;1.38;;
7545;SDS011;3814;51.454;12.616;2022-07-15T02:25:46;1.52;;;1.10;;
7545;SDS011;3814;51.454;12.616;2022-07-15T02:28:11;2.13;;;1.20;;
7545;SDS011;3814;51.454;12.616;2022-07-15T02:30:38;2.20;;;1.20;;
7545;SDS011;3814;51.454;12.616;2022-07-15T02:33:04;3.42;;;1.45;;
7545;SDS011;3814;51.454;12.616;2022-07-15T02:35:30;2.13;;;1.23;;
7545;SDS011;3814;51.454;12.616;2022-07-15T02:37:55;2.17;;;1.30;;
7545;SDS011;3814;51.454;12.616;2022-07-15T02:40:21;2.33;;;1.27;;
7545;SDS011;3814;51.454;12.616;2022-07-15T02:42:50;3.33;;;1.40;;
7545;SDS011;3814;51.454;12.616;2022-07-15T02:45:17;4.13;;;1.58;;
7545;SDS011;3814;51.454;12.616;2022-07-15T02:47:44;4.90;;;1.70;;
7545;SDS011;3814;51.454;12.616;2022-07-15T02:50:09;2.63;;;1.50;;
7545;SDS011;3814;51.454;12.616;2022-07-15T02:52:34;3.42;;;1.40;;
7545;SDS011;3814;51.454;12.616;2022-07-15T02:55:00;3.92;;;1.58;;
7545;SDS011;3814;51.454;12.616;2022-07-15T02:57:25;4.03;;;1.30;;
7545;SDS011;3814;51.454;12.616;2022-07-15T02:59:51;4.03;;;1.48;;
7545;SDS011;3814;51.454;12.616;2022-07-15T03:02:16;3.63;;;1.27;;
7545;SDS011;3814;51.454;12.616;2022-07-15T03:04:41;2.78;;;1.40;;
7545;SDS011;3814;51.454;12.616;2022-07-15T03:07:07;3.30;;;1.50;;
7545;SDS011;3814;51.454;12.616;2022-07-15T03:09:32;2.90;;;1.50;;
7545;SDS011;3814;51.454;12.616;2022-07-15T03:11:57;3.13;;;1.40;;
7545;SDS011;3814;51.454;12.616;2022-07-15T03:14:23;3.22;;;1.55;;
7545;SDS011;3814;51.454;12.616;2022-07-15T03:16:48;3.03;;;1.42;;
7545;SDS011;3814;51.454;12.616;2022-07-15T03:19:13;4.28;;;1.65;;
7545;SDS011;3814;51.454;12.616;2022-07-15T03:21:39;3.75;;;2.00;;
7545;SDS011;3814;51.454;12.616;2022-07-15T03:24:04;3.45;;;1.63;;
7545;SDS011;3814;51.454;12.616;2022-07-15T03:26:29;3.85;;;1.70;;
7545;SDS011;3814;51.454;12.616;2022-07-15T03:28:55;4.35;;;1.50;;
7545;SDS011;3814;51.454;12.616;2022-07-15T03:31:20;5.13;;;1.80;;
7545;SDS011;3814;51.454;12.616;2022-07-15T03:33:45;3.60;;;1.60;;
7545;SDS011;3814;51.454;12.616;2022-07-15T03:36:10;5.53;;;1.70;;
7545;SDS011;3814;51.454;12.616;2022-07-15T03:38:36;3.78;;;1.60;;
7545;SDS011;3814;51.454;12.616;2022-07-15T03:41:01;4.70;;;1.70;;
7545;SDS011;3814;51.454;12.616;2022-07-15T03:43:26;3.58;;;1.63;;
7545;SDS011;3814;51.454;12.616;2022-07-15T03:45:54;3.45;;;1.77;;
7545;SDS011;3814;51.454;12.616;2022-07-15T03:48:20;3.28;;;1.63;;
7545;SDS011;3814;51.454;12.616;2022-07-15T03:50:46;3.05;;;1.60;;
7545;SDS011;3814;51.454;12.616;2022-07-15T03:53:11;4.80;;;1.70;;
7545;SDS011;3814;51.454;12.616;2022-07-15T03:55:36;4.43;;;1.60;;
7545;SDS011;3814;51.454;12.616;2022-07-15T03:58:03;4.85;;;2.10;;
7545;SDS011;3814;51.454;12.616;2022-07-15T04:00:28;4.63;;;1.80;;
7545;SDS011;3814;51.454;12.616;2022-07-15T04:02:54;3.72;;;1.67;;
7545;SDS011;3814;51.454;12.616;2022-07-15T04:05:19;4.40;;;1.63;;
7545;SDS011;3814;51.454;12.616;2022-07-15T04:07:46;4.10;;;1.50;;
7545;SDS011;3814;51.454;12.616;2022-07-15T04:10:11;3.75;;;1.95;;
7545;SDS011;3814;51.454;12.616;2022-07-15T04:12:36;5.72;;;1.88;;
7545;SDS011;3814;51.454;12.616;2022-07-15T04:15:02;4.63;;;1.70;;
7545;SDS011;3814;51.454;12.616;2022-07-15T04:17:28;4.70;;;1.83;;
7545;SDS011;3814;51.454;12.616;2022-07-15T04:19:53;2.45;;;1.40;;
7545;SDS011;3814;51.454;12.616;2022-07-15T04:22:19;2.90;;;1.60;;
7545;SDS011;3814;51.454;12.616;2022-07-15T04:24:44;5.40;;;1.58;;
7545;SDS011;3814;51.454;12.616;2022-07-15T04:27:09;4.10;;;1.60;;
7545;SDS011;3814;51.454;12.616;2022-07-15T04:29:35;5.05;;;1.70;;
7545;SDS011;3814;51.454;12.616;2022-07-15T04:32:00;5.45;;;1.45;;
7545;SDS011;3814;51.454;12.616;2022-07-15T04:34:26;3.58;;;1.42;;
7545;SDS011;3814;51.454;12.616;2022-07-15T04:36:51;5.47;;;1.58;;
7545;SDS011;3814;51.454;12.616;2022-07-15T04:39:16;4.00;;;1.50;;
7545;SDS011;3814;51.454;12.616;2022-07-15T04:41:42;5.45;;;1.60;;
7545;SDS011;3814;51.454;12.616;2022-07-15T04:44:07;3.22;;;1.45;;
7545;SDS011;3814;51.454;12.616;2022-07-15T04:46:33;5.88;;;1.60;;
7545;SDS011;3814;51.454;12.616;2022-07-15T04:48:58;3.17;;;1.40;;
7545;SDS011;3814;51.454;12.616;2022-07-15T04:51:42;2.75;;;1.38;;
7545;SDS011;3814;51.454;12.616;2022-07-15T04:54:08;3.10;;;1.40;;
7545;SDS011;3814;51.454;12.616;2022-07-15T04:56:33;4.88;;;1.48;;
7545;SDS011;3814;51.454;12.616;2022-07-15T04:58:58;5.45;;;1.50;;
7545;SDS011;3814;51.454;12.616;2022-07-15T05:01:24;5.97;;;1.35;;
7545;SDS011;3814;51.454;12.616;2022-07-15T05:03:49;3.45;;;1.50;;
7545;SDS011;3814;51.454;12.616;2022-07-15T05:06:14;2.58;;;1.23;;
7545;SDS011;3814;51.454;12.616;2022-07-15T05:08:40;5.53;;;1.58;;
7545;SDS011;3814;51.454;12.616;2022-07-15T05:11:05;4.75;;;1.50;;
7545;SDS011;3814;51.454;12.616;2022-07-15T05:13:30;4.82;;;1.35;;
7545;SDS011;3814;51.454;12.616;2022-07-15T05:15:56;6.30;;;1.70;;
7545;SDS011;3814;51.454;12.616;2022-07-15T05:18:21;6.03;;;1.50;;
7545;SDS011;3814;51.454;12.616;2022-07-15T05:20:47;4.55;;;1.40;;
7545;SDS011;3814;51.454;12.616;2022-07-15T05:23:12;6.53;;;1.48;;
7545;SDS011;3814;51.454;12.616;2022-07-15T05:25:37;7.60;;;1.65;;
7545;SDS011;3814;51.454;12.616;2022-07-15T05:28:03;3.90;;;1.58;;
7545;SDS011;3814;51.454;12.616;2022-07-15T05:30:28;5.15;;;1.33;;
7545;SDS011;3814;51.454;12.616;2022-07-15T05:32:54;6.30;;;1.50;;
7545;SDS011;3814;51.454;12.616;2022-07-15T05:35:19;4.65;;;1.25;;
7545;SDS011;3814;51.454;12.616;2022-07-15T05:37:44;5.05;;;1.30;;
7545;SDS011;3814;51.454;12.616;2022-07-15T05:40:10;3.25;;;1.27;;
7545;SDS011;3814;51.454;12.616;2022-07-15T05:42:37;6.07;;;1.42;;
7545;SDS011;3814;51.454;12.616;2022-07-15T05:45:04;5.85;;;1.48;;
7545;SDS011;3814;51.454;12.616;2022-07-15T05:47:29;6.35;;;1.40;;
7545;SDS011;3814;51.454;12.616;2022-07-15T05:49:56;4.75;;;1.48;;
7545;SDS011;3814;51.454;12.616;2022-07-15T05:52:21;5.22;;;1.52;;
7545;SDS011;3814;51.454;12.616;2022-07-15T05:54:47;6.78;;;1.55;;
7545;SDS011;3814;51.454;12.616;2022-07-15T05:57:12;4.68;;;1.27;;
7545;SDS011;3814;51.454;12.616;2022-07-15T05:59:37;4.93;;;1.30;;
7545;SDS011;3814;51.454;12.616;2022-07-15T06:02:03;5.63;;;1.13;;
7545;SDS011;3814;51.454;12.616;2022-07-15T06:04:28;7.72;;;1.30;;
7545;SDS011;3814;51.454;12.616;2022-07-15T06:06:54;4.55;;;1.27;;
7545;SDS011;3814;51.454;12.616;2022-07-15T06:09:20;4.30;;;1.30;;
7545;SDS011;3814;51.454;12.616;2022-07-15T06:11:45;4.78;;;1.30;;
7545;SDS011;3814;51.454;12.616;2022-07-15T06:14:11;2.88;;;1.08;;
7545;SDS011;3814;51.454;12.616;2022-07-15T06:16:36;5.22;;;1.35;;
7545;SDS011;3814;51.454;12.616;2022-07-15T06:19:02;6.18;;;1.23;;
7545;SDS011;3814;51.454;12.616;2022-07-15T06:21:28;3.58;;;1.45;;
7545;SDS011;3814;51.454;12.616;2022-07-15T06:23:54;3.78;;;1.10;;
7545;SDS011;3814;51.454;12.616;2022-07-15T06:26:20;2.90;;;1.02;;
7545;SDS011;3814;51.454;12.616;2022-07-15T06:28:45;4.00;;;1.23;;
7545;SDS011;3814;51.454;12.616;2022-07-15T06:31:10;7.85;;;1.20;;
7545;SDS011;3814;51.454;12.616;2022-07-15T06:33:36;5.63;;;1.40;;
7545;SDS011;3814;51.454;12.616;2022-07-15T06:36:01;4.55;;;1.20;;
7545;SDS011;3814;51.454;12.616;2022-07-15T06:38:26;4.68;;;1.10;;
7545;SDS011;3814;51.454;12.616;2022-07-15T06:40:52;8.38;;;1.10;;
7545;SDS011;3814;51.454;12.616;2022-07-15T06:43:18;7.07;;;1.33;;
7545;SDS011;3814;51.454;12.616;2022-07-15T06:45:43;7.03;;;1.00;;
7545;SDS011;3814;51.454;12.616;2022-07-15T06:48:25;5.72;;;0.98;;
7545;SDS011;3814;51.454;12.616;2022-07-15T06:50:50;6.47;;;1.00;;
7545;SDS011;3814;51.454;12.616;2022-07-15T06:53:16;4.35;;;1.08;;
7545;SDS011;3814;51.454;12.616;2022-07-15T06:55:41;5.90;;;1.02;;
7545;SDS011;3814;51.454;12.616;2022-07-15T06:58:10;4.65;;;1.00;;
7545;SDS011;3814;51.454;12.616;2022-07-15T07:06:14;3.35;;;1.00;;
7545;SDS011;3814;51.454;12.616;2022-07-15T07:08:40;5.28;;;0.82;;
7545;SDS011;3814;51.454;12.616;2022-07-15T07:16:34;6.13;;;1.08;;
7545;SDS011;3814;51.454;12.616;2022-07-15T07:19:00;3.45;;;0.70;;
7545;SDS011;3814;51.454;12.616;2022-07-15T07:30:00;2.20;;;0.60;;
7545;SDS011;3814;51.454;12.616;2022-07-15T07:32:29;3.63;;;0.73;;
7545;SDS011;3814;51.454;12.616;2022-07-15T07:42:33;4.40;;;0.60;;
7545;SDS011;3814;51.454;12.616;2022-07-15T07:44:59;2.75;;;0.60;;
7545;SDS011;3814;51.454;12.616;2022-07-15T07:47:26;2.95;;;0.70;;
7545;SDS011;3814;51.454;12.616;2022-07-15T07:49:51;1.15;;;0.40;;
7545;SDS011;3814;51.454;12.616;2022-07-15T07:52:16;2.25;;;0.40;;
7545;SDS011;3814;51.454;12.616;2022-07-15T07:54:42;2.97;;;0.50;;
7545;SDS011;3814;51.454;12.616;2022-07-15T07:57:09;4.80;;;0.90;;
7545;SDS011;3814;51.454;12.616;2022-07-15T07:59:34;2.72;;;0.60;;
7545;SDS011;3814;51.454;12.616;2022-07-15T08:02:00;2.30;;;0.60;;
7545;SDS011;3814;51.454;12.616;2022-07-15T08:04:25;2.05;;;0.60;;
7545;SDS011;3814;51.454;12.616;2022-07-15T08:06:50;1.48;;;0.60;;
7545;SDS011;3814;51.454;12.616;2022-07-15T08:09:17;1.48;;;0.50;;
7545;SDS011;3814;51.454;12.616;2022-07-15T08:11:42;2.58;;;0.50;;
7545;SDS011;3814;51.454;12.616;2022-07-15T08:14:09;3.45;;;0.68;;
7545;SDS011;3814;51.454;12.616;2022-07-15T08:16:35;1.42;;;0.50;;
7545;SDS011;3814;51.454;12.616;2022-07-15T08:19:00;3.33;;;0.60;;
7545;SDS011;3814;51.454;12.616;2022-07-15T08:21:26;1.45;;;0.50;;
7545;SDS011;3814;51.454;12.616;2022-07-15T08:23:51;3.28;;;0.55;;
7545;SDS011;3814;51.454;12.616;2022-07-15T08:26:16;3.47;;;0.60;;
7545;SDS011;3814;51.454;12.616;2022-07-15T08:28:48;3.45;;;0.60;;
7545;SDS011;3814;51.454;12.616;2022-07-15T08:31:14;4.55;;;0.80;;
7545;SDS011;3814;51.454;12.616;2022-07-15T08:33:39;2.53;;;0.70;;
7545;SDS011;3814;51.454;12.616;2022-07-15T08:36:04;2.80;;;0.70;;
7545;SDS011;3814;51.454;12.616;2022-07-15T08:38:30;1.40;;;0.40;;
7545;SDS011;3814;51.454;12.616;2022-07-15T08:40:55;3.05;;;0.80;;
7545;SDS011;3814;51.454;12.616;2022-07-15T08:43:21;3.55;;;0.70;;
7545;SDS011;3814;51.454;12.616;2022-07-15T08:45:46;4.07;;;0.80;;
7545;SDS011;3814;51.454;12.616;2022-07-15T08:48:12;3.20;;;0.57;;
7545;SDS011;3814;51.454;12.616;2022-07-15T08:50:38;3.10;;;0.63;;
7545;SDS011;3814;51.454;12.616;2022-07-15T08:53:03;1.23;;;0.52;;
7545;SDS011;3814;51.454;12.616;2022-07-15T08:55:29;2.25;;;0.73;;
7545;SDS011;3814;51.454;12.616;2022-07-15T08:57:55;2.22;;;0.70;;
7545;SDS011;3814;51.454;12.616;2022-07-15T09:00:21;2.08;;;0.60;;
7545;SDS011;3814;51.454;12.616;2022-07-15T09:02:48;2.72;;;0.60;;
7545;SDS011;3814;51.454;12.616;2022-07-15T09:10:40;3.63;;;0.70;;
7545;SDS011;3814;51.454;12.616;2022-07-15T09:13:29;4.10;;;0.68;;
7545;SDS011;3814;51.454;12.616;2022-07-15T09:15:57;1.42;;;0.65;;
7545;SDS011;3814;51.454;12.616;2022-07-15T09:18:29;6.78;;;1.02;;
7545;SDS011;3814;51.454;12.616;2022-07-15T09:20:58;4.47;;;0.90;;
7545;SDS011;3814;51.454;12.616;2022-07-15T09:23:24;2.88;;;0.80;;
7545;SDS011;3814;51.454;12.616;2022-07-15T09:26:20;2.55;;;0.70;;
7545;SDS011;3814;51.454;12.616;2022-07-15T09:28:47;3.38;;;0.70;;
7545;SDS011;3814;51.454;12.616;2022-07-15T09:31:14;3.42;;;0.82;;
7545;SDS011;3814;51.454;12.616;2022-07-15T09:34:02;2.38;;;0.70;;
7545;SDS011;3814;51.454;12.616;2022-07-15T09:36:28;3.35;;;0.73;;
7545;SDS011;3814;51.454;12.616;2022-07-15T09:38:56;3.03;;;1.00;;
7545;SDS011;3814;51.454;12.616;2022-07-15T09:43:59;3.55;;;0.88;;
7545;SDS011;3814;51.454;12.616;2022-07-15T09:46:26;3.25;;;0.60;;
7545;SDS011;3814;51.454;12.616;2022-07-15T09:48:52;4.63;;;0.80;;
7545;SDS011;3814;51.454;12.616;2022-07-15T09:51:18;1.77;;;0.60;;
7545;SDS011;3814;51.454;12.616;2022-07-15T09:53:45;4.10;;;0.70;;
7545;SDS011;3814;51.454;12.616;2022-07-15T09:56:14;4.47;;;0.80;;
7545;SDS011;3814;51.454;12.616;2022-07-15T09:58:46;3.28;;;0.70;;
7545;SDS011;3814;51.454;12.616;2022-07-15T10:01:11;1.98;;;0.73;;
7545;SDS011;3814;51.454;12.616;2022-07-15T10:03:37;2.15;;;0.80;;
7545;SDS011;3814;51.454;12.616;2022-07-15T10:06:03;2.95;;;0.63;;
7545;SDS011;3814;51.454;12.616;2022-07-15T10:08:30;4.20;;;0.60;;
7545;SDS011;3814;51.454;12.616;2022-07-15T10:10:56;3.78;;;0.63;;
7545;SDS011;3814;51.454;12.616;2022-07-15T10:15:54;2.65;;;0.70;;
7545;SDS011;3814;51.454;12.616;2022-07-15T10:24:10;4.03;;;0.80;;
7545;SDS011;3814;51.454;12.616;2022-07-15T10:26:54;3.83;;;0.63;;
7545;SDS011;3814;51.454;12.616;2022-07-15T10:29:28;3.08;;;0.70;;
7545;SDS011;3814;51.454;12.616;2022-07-15T10:31:55;1.42;;;0.60;;
7545;SDS011;3814;51.454;12.616;2022-07-15T10:34:22;3.15;;;0.70;;
7545;SDS011;3814;51.454;12.616;2022-07-15T10:39:18;2.00;;;0.55;;
7545;SDS011;3814;51.454;12.616;2022-07-15T10:41:54;1.88;;;0.57;;
7545;SDS011;3814;51.454;12.616;2022-07-15T10:44:29;2.47;;;0.55;;
7545;SDS011;3814;51.454;12.616;2022-07-15T10:49:39;2.95;;;0.52;;
7545;SDS011;3814;51.454;12.616;2022-07-15T10:52:10;3.95;;;0.60;;
7545;SDS011;3814;51.454;12.616;2022-07-15T10:54:37;2.92;;;0.60;;
7545;SDS011;3814;51.454;12.616;2022-07-15T10:57:04;2.72;;;0.73;;
7545;SDS011;3814;51.454;12.616;2022-07-15T10:59:29;1.63;;;0.60;;
7545;SDS011;3814;51.454;12.616;2022-07-15T11:04:31;2.25;;;0.50;;
7545;SDS011;3814;51.454;12.616;2022-07-15T11:15:30;4.75;;;0.70;;
7545;SDS011;3814;51.454;12.616;2022-07-15T11:17:38;2.45;;;0.40;;
7545;SDS011;3814;51.454;12.616;2022-07-15T11:20:06;3.28;;;0.50;;
7545;SDS011;3814;51.454;12.616;2022-07-15T11:22:33;3.13;;;0.60;;
7545;SDS011;3814;51.454;12.616;2022-07-15T11:25:00;2.05;;;0.50;;
7545;SDS011;3814;51.454;12.616;2022-07-15T11:27:26;2.60;;;0.50;;
7545;SDS011;3814;51.454;12.616;2022-07-15T11:29:52;3.47;;;0.60;;
7545;SDS011;3814;51.454;12.616;2022-07-15T11:32:20;3.38;;;0.60;;
7545;SDS011;3814;51.454;12.616;2022-07-15T11:34:48;2.35;;;0.50;;
7545;SDS011;3814;51.454;12.616;2022-07-15T11:37:15;5.50;;;0.57;;
7545;SDS011;3814;51.454;12.616;2022-07-15T11:39:47;2.38;;;0.70;;
7545;SDS011;3814;51.454;12.616;2022-07-15T11:42:18;3.72;;;0.50;;
7545;SDS011;3814;51.454;12.616;2022-07-15T11:45:03;3.75;;;0.60;;
7545;SDS011;3814;51.454;12.616;2022-07-15T12:50:19;2.53;;;0.65;;
7545;SDS011;3814;51.454;12.616;2022-07-15T13:03:39;2.92;;;0.60;;
7545;SDS011;3814;51.454;12.616;2022-07-15T13:06:06;2.85;;;0.60;;
7545;SDS011;3814;51.454;12.616;2022-07-15T13:08:37;2.30;;;0.50;;
7545;SDS011;3814;51.454;12.616;2022-07-15T13:16:33;4.22;;;0.70;;
7545;SDS011;3814;51.454;12.616;2022-07-15T13:18:59;2.65;;;0.70;;
7545;SDS011;3814;51.454;12.616;2022-07-15T13:21:24;1.80;;;0.73;;
7545;SDS011;3814;51.454;12.616;2022-07-15T13:41:29;1.75;;;0.80;;
7545;SDS011;3814;51.454;12.616;2022-07-15T13:59:33;2.55;;;0.73;;
7545;SDS011;3814;51.454;12.616;2022-07-15T14:01:58;2.20;;;0.80;;
7545;SDS011;3814;51.454;12.616;2022-07-15T14:04:23;2.58;;;0.95;;
7545;SDS011;3814;51.454;12.616;2022-07-15T14:06:49;1.88;;;0.80;;
7545;SDS011;3814;51.454;12.616;2022-07-15T14:09:14;2.72;;;0.90;;
7545;SDS011;3814;51.454;12.616;2022-07-15T14:11:40;2.60;;;0.80;;
7545;SDS011;3814;51.454;12.616;2022-07-15T14:14:05;4.18;;;1.00;;
7545;SDS011;3814;51.454;12.616;2022-07-15T14:16:30;2.70;;;0.90;;
7545;SDS011;3814;51.454;12.616;2022-07-15T14:18:56;2.67;;;0.80;;
7545;SDS011;3814;51.454;12.616;2022-07-15T14:21:21;2.90;;;0.90;;
7545;SDS011;3814;51.454;12.616;2022-07-15T14:23:48;1.83;;;0.82;;
7545;SDS011;3814;51.454;12.616;2022-07-15T14:26:14;2.15;;;1.00;;
7545;SDS011;3814;51.454;12.616;2022-07-15T14:28:40;5.18;;;1.35;;
7545;SDS011;3814;51.454;12.616;2022-07-15T14:31:06;3.53;;;1.05;;
7545;SDS011;3814;51.454;12.616;2022-07-15T14:33:32;5.85;;;1.08;;
7545;SDS011;3814;51.454;12.616;2022-07-15T14:35:58;2.50;;;0.82;;
7545;SDS011;3814;51.454;12.616;2022-07-15T14:40:53;4.45;;;0.88;;
7545;SDS011;3814;51.454;12.616;2022-07-15T14:43:19;2.13;;;0.80;;
7545;SDS011;3814;51.454;12.616;2022-07-15T14:45:44;3.22;;;0.80;;
7545;SDS011;3814;51.454;12.616;2022-07-15T14:48:09;2.92;;;0.82;;
7545;SDS011;3814;51.454;12.616;2022-07-15T14:50:36;2.63;;;0.85;;
7545;SDS011;3814;51.454;12.616;2022-07-15T14:53:01;3.45;;;0.93;;
7545;SDS011;3814;51.454;12.616;2022-07-15T14:55:27;2.65;;;0.90;;
7545;SDS011;3814;51.454;12.616;2022-07-15T14:57:52;1.75;;;0.88;;
7545;SDS011;3814;51.454;12.616;2022-07-15T15:00:18;1.80;;;0.90;;
7545;SDS011;3814;51.454;12.616;2022-07-15T15:02:44;1.83;;;0.90;;
7545;SDS011;3814;51.454;12.616;2022-07-15T15:05:09;4.57;;;0.95;;
7545;SDS011;3814;51.454;12.616;2022-07-15T15:07:35;3.03;;;1.00;;
7545;SDS011;3814;51.454;12.616;2022-07-15T15:10:00;2.53;;;0.98;;
7545;SDS011;3814;51.454;12.616;2022-07-15T15:12:25;3.35;;;1.00;;
7545;SDS011;3814;51.454;12.616;2022-07-15T15:14:51;1.63;;;0.95;;
7545;SDS011;3814;51.454;12.616;2022-07-15T15:17:16;2.38;;;0.90;;
7545;SDS011;3814;51.454;12.616;2022-07-15T15:19:42;1.92;;;0.88;;
7545;SDS011;3814;51.454;12.616;2022-07-15T15:22:07;1.95;;;0.80;;
7545;SDS011;3814;51.454;12.616;2022-07-15T15:24:32;1.85;;;0.80;;
7545;SDS011;3814;51.454;12.616;2022-07-15T15:26:58;5.15;;;1.17;;
7545;SDS011;3814;51.454;12.616;2022-07-15T15:29:26;3.88;;;0.98;;
7545;SDS011;3814;51.454;12.616;2022-07-15T15:31:51;3.15;;;0.98;;
7545;SDS011;3814;51.454;12.616;2022-07-15T15:34:17;4.32;;;0.95;;
7545;SDS011;3814;51.454;12.616;2022-07-15T15:36:43;2.17;;;0.90;;
7545;SDS011;3814;51.454;12.616;2022-07-15T15:39:08;2.95;;;1.10;;
7545;SDS011;3814;51.454;12.616;2022-07-15T15:41:34;4.25;;;1.10;;
7545;SDS011;3814;51.454;12.616;2022-07-15T15:43:59;2.65;;;0.82;;
7545;SDS011;3814;51.454;12.616;2022-07-15T15:46:25;5.07;;;1.00;;
7545;SDS011;3814;51.454;12.616;2022-07-15T15:48:51;2.00;;;1.00;;
7545;SDS011;3814;51.454;12.616;2022-07-15T15:51:16;2.85;;;1.02;;
7545;SDS011;3814;51.454;12.616;2022-07-15T15:53:41;2.35;;;1.00;;
7545;SDS011;3814;51.454;12.616;2022-07-15T15:56:07;2.58;;;0.90;;
7545;SDS011;3814;51.454;12.616;2022-07-15T15:58:32;4.00;;;1.15;;
7545;SDS011;3814;51.454;12.616;2022-07-15T16:01:01;5.30;;;1.00;;
7545;SDS011;3814;51.454;12.616;2022-07-15T16:03:27;2.47;;;1.20;;
7545;SDS011;3814;51.454;12.616;2022-07-15T16:05:53;4.03;;;0.93;;
7545;SDS011;3814;51.454;12.616;2022-07-15T16:08:18;2.85;;;0.90;;
7545;SDS011;3814;51.454;12.616;2022-07-15T16:10:43;3.63;;;1.00;;
7545;SDS011;3814;51.454;12.616;2022-07-15T16:13:09;2.55;;;1.05;;
7545;SDS011;3814;51.454;12.616;2022-07-15T16:15:34;3.53;;;0.90;;
7545;SDS011;3814;51.454;12.616;2022-07-15T16:17:59;5.45;;;1.10;;
7545;SDS011;3814;51.454;12.616;2022-07-15T16:20:25;2.58;;;0.90;;
7545;SDS011;3814;51.454;12.616;2022-07-15T16:22:50;2.05;;;0.95;;
7545;SDS011;3814;51.454;12.616;2022-07-15T16:25:27;2.85;;;0.90;;
7545;SDS011;3814;51.454;12.616;2022-07-15T16:27:54;2.42;;;0.82;;
7545;SDS011;3814;51.454;12.616;2022-07-15T16:30:20;1.85;;;1.10;;
7545;SDS011;3814;51.454;12.616;2022-07-15T16:32:47;3.03;;;1.00;;
7545;SDS011;3814;51.454;12.616;2022-07-15T16:35:13;4.75;;;1.17;;
7545;SDS011;3814;51.454;12.616;2022-07-15T16:37:38;3.28;;;1.10;;
7545;SDS011;3814;51.454;12.616;2022-07-15T16:40:03;3.45;;;1.10;;
7545;SDS011;3814;51.454;12.616;2022-07-15T16:42:29;3.58;;;1.10;;
7545;SDS011;3814;51.454;12.616;2022-07-15T16:44:55;2.83;;;1.02;;
7545;SDS011;3814;51.454;12.616;2022-07-15T16:47:20;2.80;;;0.90;;
7545;SDS011;3814;51.454;12.616;2022-07-15T16:49:45;3.17;;;1.02;;
7545;SDS011;3814;51.454;12.616;2022-07-15T16:52:11;2.50;;;0.93;;
7545;SDS011;3814;51.454;12.616;2022-07-15T16:54:36;1.40;;;0.90;;
7545;SDS011;3814;51.454;12.616;2022-07-15T16:57:02;2.33;;;0.88;;
7545;SDS011;3814;51.454;12.616;2022-07-15T16:59:27;2.15;;;1.20;;
7545;SDS011;3814;51.454;12.616;2022-07-15T17:01:52;1.50;;;0.90;;
7545;SDS011;3814;51.454;12.616;2022-07-15T17:04:18;3.55;;;0.90;;
7545;SDS011;3814;51.454;12.616;2022-07-15T17:06:44;3.08;;;1.17;;
7545;SDS011;3814;51.454;12.616;2022-07-15T17:09:09;1.73;;;1.00;;
7545;SDS011;3814;51.454;12.616;2022-07-15T17:11:35;1.52;;;0.77;;
7545;SDS011;3814;51.454;12.616;2022-07-15T17:14:00;1.77;;;0.80;;
7545;SDS011;3814;51.454;12.616;2022-07-15T17:16:26;2.10;;;0.90;;
7545;SDS011;3814;51.454;12.616;2022-07-15T17:18:52;2.83;;;0.90;;
7545;SDS011;3814;51.454;12.616;2022-07-15T17:21:17;2.85;;;1.00;;
7545;SDS011;3814;51.454;12.616;2022-07-15T17:23:42;2.35;;;1.00;;
7545;SDS011;3814;51.454;12.616;2022-07-15T17:26:08;2.95;;;0.80;;
7545;SDS011;3814;51.454;12.616;2022-07-15T17:28:33;2.67;;;0.98;;
7545;SDS011;3814;51.454;12.616;2022-07-15T17:31:00;2.83;;;0.90;;
7545;SDS011;3814;51.454;12.616;2022-07-15T17:33:26;11.38;;;1.13;;
7545;SDS011;3814;51.454;12.616;2022-07-15T17:35:51;2.35;;;0.80;;
7545;SDS011;3814;51.454;12.616;2022-07-15T17:38:17;1.80;;;0.77;;
7545;SDS011;3814;51.454;12.616;2022-07-15T17:40:42;2.35;;;1.20;;
7545;SDS011;3814;51.454;12.616;2022-07-15T17:43:07;1.27;;;0.80;;
7545;SDS011;3814;51.454;12.616;2022-07-15T17:45:33;2.70;;;1.23;;
7545;SDS011;3814;51.454;12.616;2022-07-15T17:47:58;3.05;;;1.25;;
7545;SDS011;3814;51.454;12.616;2022-07-15T17:50:24;3.47;;;1.60;;
7545;SDS011;3814;51.454;12.616;2022-07-15T17:52:49;3.00;;;1.20;;